Time;durP1;ratioP1;P1;durP2;ratioP2;P2;SDS_P1;SDS_P2;PMS_P1;PMS_P2;Temp;Humidity;BMP_temperature;BMP_pressure;BME280_temperature;BME280_humidity;BME280_pressure;Samples;Min_cycle;Max_cycle;Signal;HPM_P1;HPM_P2
2022/12/09 00:03:41;;;;;;;17.33;11.68;;;;;;;2.70;65.57;99011.72;10433691;28;20055;-64
2022/12/09 00:08:44;;;;;;;17.20;11.27;;;;;;;2.80;65.40;99002.72;10426271;28;20135;-63
2022/12/09 00:13:54;;;;;;;15.63;10.95;;;;;;;2.82;65.27;99000.06;10433007;28;20068;-63
2022/12/09 00:18:56;;;;;;;15.82;11.80;;;;;;;2.76;65.11;98993.41;10428706;28;20325;-63
2022/12/09 00:24:03;;;;;;;16.70;11.88;;;;;;;2.76;65.27;98995.16;10438554;28;20087;-63
2022/12/09 00:29:06;;;;;;;18.02;12.55;;;;;;;2.79;65.14;99006.19;10432986;28;20501;-64
2022/12/09 00:34:11;;;;;;;20.30;12.88;;;;;;;2.79;65.26;98998.44;10434639;28;20057;-63
2022/12/09 00:39:13;;;;;;;16.17;10.30;;;;;;;2.78;65.27;98993.34;10431457;28;20053;-64
2022/12/09 00:44:15;;;;;;;16.83;11.25;;;;;;;2.78;65.42;98994.19;10433864;28;20072;-64
2022/12/09 00:49:16;;;;;;;16.65;11.30;;;;;;;2.77;65.41;98992.50;10434739;28;20057;-64
2022/12/09 00:54:18;;;;;;;16.13;11.30;;;;;;;2.79;65.33;98987.25;10435301;28;20493;-64
2022/12/09 00:59:21;;;;;;;15.95;10.95;;;;;;;2.73;65.54;98985.78;10434427;28;20111;-63
2022/12/09 01:04:23;;;;;;;15.48;10.00;;;;;;;2.74;65.47;98982.31;10431709;28;20048;-64
2022/12/09 01:09:25;;;;;;;15.95;11.18;;;;;;;2.77;65.46;98979.59;10436738;28;20547;-64
2022/12/09 01:14:27;;;;;;;18.10;12.30;;;;;;;2.67;65.37;98987.78;10434511;28;20551;-65
2022/12/09 01:19:29;;;;;;;16.77;11.52;;;;;;;2.56;65.66;98984.84;10433425;28;20338;-64
2022/12/09 01:24:31;;;;;;;18.55;12.02;;;;;;;2.43;65.71;98992.25;10435958;28;20363;-64
2022/12/09 01:29:33;;;;;;;16.95;11.20;;;;;;;2.33;66.19;98990.13;10432439;28;20060;-63
2022/12/09 01:34:34;;;;;;;18.50;11.95;;;;;;;2.39;66.12;98987.28;10469006;28;20055;-64
2022/12/09 01:39:36;;;;;;;18.35;11.43;;;;;;;2.45;65.96;98981.88;10440859;28;20446;-63
2022/12/09 01:44:38;;;;;;;16.65;11.43;;;;;;;2.50;65.97;98972.19;10430837;28;20063;-63
2022/12/09 01:49:42;;;;;;;22.33;16.27;;;;;;;2.56;65.98;98971.94;10431408;28;20417;-63
2022/12/09 01:54:47;;;;;;;19.85;13.45;;;;;;;2.55;65.93;98976.25;10446250;28;20060;-64
2022/12/09 01:59:49;;;;;;;20.58;13.07;;;;;;;2.50;65.62;98973.00;10448199;28;20056;-63
2022/12/09 02:04:51;;;;;;;17.67;11.50;;;;;;;2.44;66.23;98969.88;10432592;28;20053;-64
2022/12/09 02:09:53;;;;;;;18.98;12.05;;;;;;;2.46;66.00;98974.06;10430152;28;20049;-64
2022/12/09 02:15:05;;;;;;;17.83;11.30;;;;;;;2.46;66.16;98965.50;10474408;28;20417;-63
2022/12/09 02:20:28;;;;;;;14.68;10.77;;;;;;;2.46;66.08;98962.91;10430512;28;20060;-63
2022/12/09 02:25:38;;;;;;;16.10;10.93;;;;;;;2.39;65.89;98964.91;10436770;28;20056;-63
2022/12/09 02:30:53;;;;;;;15.52;10.60;;;;;;;2.37;66.02;98960.72;10430790;28;20410;-63
2022/12/09 02:36:13;;;;;;;16.75;10.40;;;;;;;2.36;66.37;98957.28;10437980;28;20068;-63
2022/12/09 02:41:22;;;;;;;17.55;10.75;;;;;;;2.42;66.07;98956.22;10430346;28;20041;-64
2022/12/09 02:46:26;;;;;;;17.58;10.15;;;;;;;2.37;66.09;98946.06;10440111;28;20135;-63
2022/12/09 02:51:32;;;;;;;15.57;9.43;;;;;;;2.37;66.22;98940.91;10431008;28;20493;-63
2022/12/09 02:56:34;;;;;;;14.00;9.52;;;;;;;2.35;66.11;98939.28;10467742;28;20045;-64
2022/12/09 03:01:56;;;;;;;17.70;10.30;;;;;;;2.25;66.09;98930.25;10435633;28;20077;-64
2022/12/09 03:07:18;;;;;;;13.55;9.02;;;;;;;2.20;66.32;98926.13;10435441;28;20348;-63
2022/12/09 03:12:22;;;;;;;19.55;10.13;;;;;;;2.17;66.22;98923.66;10442092;28;20056;-63
2022/12/09 03:17:30;;;;;;;16.40;10.40;;;;;;;2.11;65.96;98913.63;10434903;28;20398;-63
2022/12/09 03:22:34;;;;;;;17.48;10.70;;;;;;;1.97;66.08;98908.19;10436311;28;20408;-64
2022/12/09 03:27:42;;;;;;;14.07;9.35;;;;;;;1.81;66.67;98916.59;10441407;28;20052;-63
2022/12/09 03:32:45;;;;;;;13.85;9.38;;;;;;;1.92;66.40;98904.97;10433887;28;20037;-63
2022/12/09 03:37:49;;;;;;;15.15;9.82;;;;;;;1.95;66.36;98902.25;10440930;28;20063;-63
2022/12/09 03:43:00;;;;;;;16.30;10.77;;;;;;;1.93;66.54;98904.06;10436938;28;20040;-64
2022/12/09 03:48:03;;;;;;;16.58;10.68;;;;;;;1.87;66.29;98891.44;10435207;28;20321;-64
2022/12/09 03:53:32;;;;;;;17.58;10.27;;;;;;;1.79;66.36;98896.06;10439852;28;20059;-63
2022/12/09 03:58:38;;;;;;;15.30;9.55;;;;;;;1.75;66.47;98894.50;10433147;28;20052;-63
2022/12/09 04:03:44;;;;;;;14.43;9.20;;;;;;;1.70;66.62;98893.88;10436961;28;20086;-64
2022/12/09 04:08:47;;;;;;;16.17;10.50;;;;;;;1.65;66.55;98887.19;10433557;28;20461;-63
2022/12/09 04:13:49;;;;;;;13.45;8.32;;;;;;;1.52;66.57;98904.06;10426593;28;20508;-63
2022/12/09 04:18:50;;;;;;;15.30;9.40;;;;;;;1.49;66.62;98901.59;10427517;28;20056;-64
2022/12/09 04:23:52;;;;;;;19.42;11.05;;;;;;;1.44;66.97;98898.38;10426700;28;20056;-63
2022/12/09 04:28:54;;;;;;;15.55;10.38;;;;;;;1.51;66.92;98890.34;10427418;28;20048;-63
2022/12/09 04:33:55;;;;;;;13.65;9.15;;;;;;;1.61;66.70;98893.38;10425293;28;20049;-63
2022/12/09 04:38:58;;;;;;;15.93;9.85;;;;;;;1.66;66.53;98889.75;10426419;28;20091;-64
2022/12/09 04:44:00;;;;;;;18.27;10.07;;;;;;;1.62;66.52;98889.91;10426565;28;20053;-63
2022/12/09 04:49:02;;;;;;;15.90;9.98;;;;;;;1.59;66.76;98890.88;10436980;28;20052;-63
2022/12/09 04:54:04;;;;;;;14.30;10.07;;;;;;;1.65;66.70;98882.03;10426760;28;20045;-62
2022/12/09 04:59:06;;;;;;;24.00;12.07;;;;;;;1.68;66.59;98881.94;10427104;28;20501;-63
2022/12/09 05:04:08;;;;;;;32.42;15.52;;;;;;;1.60;66.21;98884.00;10436148;28;20088;-63
2022/12/09 05:09:12;;;;;;;46.90;20.05;;;;;;;1.58;66.71;98883.22;10442912;28;20110;-63
2022/12/09 05:14:14;;;;;;;39.80;16.10;;;;;;;1.62;66.59;98892.50;10433754;28;20049;-62
2022/12/09 05:19:15;;;;;;;33.45;15.82;;;;;;;1.65;66.82;98884.63;10473395;28;20045;-64
2022/12/09 05:24:17;;;;;;;25.85;14.40;;;;;;;1.70;66.67;98883.56;10433847;28;20057;-62
2022/12/09 05:29:19;;;;;;;25.85;15.50;;;;;;;1.73;66.66;98880.84;10432220;28;20060;-63
2022/12/09 05:34:24;;;;;;;49.40;22.20;;;;;;;1.75;66.61;98873.88;10431966;28;20515;-62
2022/12/09 05:39:26;;;;;;;29.50;16.90;;;;;;;1.66;66.48;98874.28;10446281;28;20214;-63
2022/12/09 05:44:29;;;;;;;46.08;21.63;;;;;;;1.50;66.81;98873.22;10432943;28;20095;-62
2022/12/09 05:49:31;;;;;;;24.35;13.40;;;;;;;1.41;67.13;98868.41;10433719;28;20057;-63
2022/12/09 05:54:33;;;;;;;24.13;14.88;;;;;;;1.53;67.05;98865.34;10436000;28;20222;-63
2022/12/09 05:59:35;;;;;;;26.50;15.60;;;;;;;1.56;66.92;98860.09;10430642;28;20053;-63
2022/12/09 06:04:37;;;;;;;25.23;14.98;;;;;;;1.59;66.86;98851.38;10436000;28;20052;-62
2022/12/09 06:09:39;;;;;;;28.98;16.85;;;;;;;1.61;67.04;98852.16;10430542;28;20049;-63
2022/12/09 06:14:40;;;;;;;24.15;15.07;;;;;;;1.70;66.64;98846.63;10430808;28;20518;-62
2022/12/09 06:19:42;;;;;;;25.08;14.10;;;;;;;1.75;66.64;98847.25;10429106;28;20131;-63
2022/12/09 06:24:44;;;;;;;26.60;16.42;;;;;;;1.81;66.62;98854.75;10432324;28;20856;-64
2022/12/09 06:29:46;;;;;;;21.45;14.35;;;;;;;1.89;66.45;98860.44;10430334;28;20044;-63
2022/12/09 06:34:48;;;;;;;24.67;15.93;;;;;;;1.97;66.33;98848.88;10430412;28;20135;-62
2022/12/09 06:39:50;;;;;;;21.30;14.02;;;;;;;2.05;66.29;98856.31;10431397;28;20049;-63
2022/12/09 06:44:52;;;;;;;26.55;15.90;;;;;;;2.00;66.09;98847.94;10429975;28;20389;-62
2022/12/09 06:49:56;;;;;;;24.02;15.20;;;;;;;1.82;66.28;98841.81;10434355;28;20052;-63
2022/12/09 06:55:07;;;;;;;27.40;16.95;;;;;;;1.76;66.57;98854.97;10433225;28;20484;-62
2022/12/09 07:00:10;;;;;;;30.65;16.88;;;;;;;1.76;66.46;98854.97;10434515;28;20142;-62
2022/12/09 07:05:12;;;;;;;38.53;20.00;;;;;;;1.81;66.46;98852.16;10433640;28;20044;-62
2022/12/09 07:10:15;;;;;;;27.42;17.58;;;;;;;1.72;66.45;98863.72;10428441;28;20055;-62
2022/12/09 07:15:17;;;;;;;31.77;19.30;;;;;;;1.83;66.59;98858.09;10431157;28;20057;-63
2022/12/09 07:20:19;;;;;;;37.40;19.35;;;;;;;1.94;66.38;98861.06;10431998;28;20102;-65
2022/12/09 07:25:21;;;;;;;32.47;18.90;;;;;;;1.97;66.39;98861.78;10426913;28;20452;-65
2022/12/09 07:30:23;;;;;;;31.42;19.90;;;;;;;2.00;66.04;98856.50;10428013;28;20398;-64
2022/12/09 07:35:24;;;;;;;29.35;18.55;;;;;;;2.05;66.19;98861.47;10426703;28;20056;-63
2022/12/09 07:40:26;;;;;;;34.28;20.30;;;;;;;2.07;66.13;98864.81;10430637;28;20442;-63
2022/12/09 07:45:28;;;;;;;34.55;20.58;;;;;;;2.17;66.21;98872.09;10419556;28;20051;-64
2022/12/09 07:50:30;;;;;;;38.22;22.00;;;;;;;2.15;66.03;98870.50;10423809;28;20129;-64
2022/12/09 07:55:32;;;;;;;34.17;21.48;;;;;;;2.14;65.98;98868.81;10426871;28;20053;-64
2022/12/09 08:00:34;;;;;;;33.40;21.38;;;;;;;2.04;66.20;98862.38;10425044;28;20553;-64
2022/12/09 08:05:36;;;;;;;36.17;21.90;;;;;;;1.89;66.21;98858.69;10422550;28;20127;-64
2022/12/09 08:10:38;;;;;;;34.38;21.88;;;;;;;1.65;66.68;98864.00;10425092;28;20060;-65
2022/12/09 08:15:41;;;;;;;36.78;22.13;;;;;;;1.70;66.55;98850.06;10424300;28;20053;-64
2022/12/09 08:20:43;;;;;;;40.53;23.10;;;;;;;1.74;66.39;98863.66;10425375;28;20135;-64
2022/12/09 08:25:51;;;;;;;38.13;22.90;;;;;;;1.77;66.30;98869.50;10429359;28;20073;-64
2022/12/09 08:30:54;;;;;;;39.97;23.33;;;;;;;1.82;66.33;98857.28;10438146;28;20068;-64
2022/12/09 08:35:56;;;;;;;35.40;22.00;;;;;;;1.75;66.48;98855.84;10427020;28;20520;-64
2022/12/09 08:40:58;;;;;;;38.28;23.13;;;;;;;1.82;66.53;98859.00;10424620;28;20084;-64
2022/12/09 08:46:00;;;;;;;38.20;22.73;;;;;;;1.82;66.27;98862.44;10440670;28;20055;-64
2022/12/09 08:51:04;;;;;;;39.92;23.75;;;;;;;1.85;66.20;98858.88;10431927;28;20848;-64
2022/12/09 08:56:11;;;;;;;40.33;23.95;;;;;;;1.76;66.50;98859.25;10433921;28;20716;-64
2022/12/09 09:01:15;;;;;;;42.50;23.20;;;;;;;1.95;66.39;98848.13;10441907;28;20052;-63
2022/12/09 09:06:19;;;;;;;38.03;22.08;;;;;;;1.88;66.51;98844.13;10431858;28;20409;-64
2022/12/09 09:11:22;;;;;;;36.25;22.10;;;;;;;2.00;65.95;98851.34;10429028;28;20052;-64
2022/12/09 09:16:26;;;;;;;36.47;22.90;;;;;;;1.94;66.10;98849.03;10430529;28;20681;-64
2022/12/09 09:21:28;;;;;;;38.50;22.35;;;;;;;2.11;66.10;98845.75;10434927;28;20079;-64
2022/12/09 09:26:30;;;;;;;35.22;21.40;;;;;;;2.34;65.77;98843.00;10431062;28;20049;-64
2022/12/09 09:31:33;;;;;;;34.58;22.27;;;;;;;2.40;65.28;98832.41;10443620;28;20041;-63
2022/12/09 09:36:35;;;;;;;36.17;22.10;;;;;;;2.73;64.65;98841.22;10430560;28;20637;-63
2022/12/09 09:41:43;;;;;;;31.65;20.23;;;;;;;2.83;64.39;98829.56;10434467;28;20049;-64
2022/12/09 09:46:47;;;;;;;28.63;19.58;;;;;;;2.78;64.41;98817.78;10434053;28;20409;-64
2022/12/09 09:51:50;;;;;;;30.80;19.88;;;;;;;2.71;64.50;98814.63;10428696;28;20060;-64
2022/12/09 09:57:16;;;;;;;31.05;19.40;;;;;;;2.76;64.07;98824.75;10433292;28;20049;-63
2022/12/09 10:02:30;;;;;;;30.33;20.35;;;;;;;2.91;63.33;98824.03;10430875;28;20417;-64
2022/12/09 10:07:40;;;;;;;28.75;19.33;;;;;;;3.09;63.76;98815.44;10432531;28;20757;-64
2022/12/09 10:12:55;;;;;;;34.47;20.05;;;;;;;2.96;63.34;98809.19;10433271;28;20067;-69
2022/12/09 10:18:21;;;;;;;29.90;19.40;;;;;;;3.10;63.28;98801.63;10443046;28;20049;-69
2022/12/09 10:23:28;;;;;;;29.02;18.42;;;;;;;2.87;63.25;98807.84;10428213;28;20045;-69
2022/12/09 10:28:38;;;;;;;28.85;18.85;;;;;;;2.76;63.81;98802.38;10433560;28;20053;-70
2022/12/09 10:33:40;;;;;;;29.10;18.67;;;;;;;2.85;63.58;98799.34;10428163;28;20520;-70
2022/12/09 10:38:42;;;;;;;28.60;18.45;;;;;;;3.10;63.47;98795.59;10428321;28;20056;-69
2022/12/09 10:43:44;;;;;;;29.95;18.85;;;;;;;3.18;62.62;98790.91;10445934;28;20161;-69
2022/12/09 10:48:46;;;;;;;27.95;17.75;;;;;;;3.05;62.67;98795.81;10427515;28;20428;-69
2022/12/09 10:54:10;;;;;;;25.67;17.92;;;;;;;3.26;61.97;98794.81;10434144;28;20454;-69
2022/12/09 10:59:28;;;;;;;27.42;18.08;;;;;;;3.54;62.26;98783.94;10427737;28;20048;-69
2022/12/09 11:04:39;;;;;;;29.50;17.98;;;;;;;3.51;61.63;98786.69;10427799;28;20053;-69
2022/12/09 11:09:49;;;;;;;25.88;16.30;;;;;;;3.47;61.39;98783.44;10427486;28;20047;-69
2022/12/09 11:15:04;;;;;;;25.70;16.95;;;;;;;3.70;61.57;98780.53;10439579;28;20053;-69
2022/12/09 11:20:15;;;;;;;31.52;15.90;;;;;;;3.90;59.72;98766.63;10446945;28;20459;-69
2022/12/09 11:25:28;;;;;;;22.92;14.25;;;;;;;3.44;60.13;98764.63;10426285;28;20538;-69
2022/12/09 11:30:33;;;;;;;21.15;13.50;;;;;;;3.48;60.78;98763.56;10427714;28;20566;-69
2022/12/09 11:35:43;;;;;;;24.48;15.48;;;;;;;3.80;60.33;98768.81;10426008;28;20501;-69
2022/12/09 11:41:14;;;;;;;21.63;14.00;;;;;;;3.68;58.52;98760.84;10427338;28;20600;-69
2022/12/09 11:46:21;;;;;;;19.17;12.05;;;;;;;3.84;59.76;98756.59;10423456;28;20580;-69
2022/12/09 11:51:31;;;;;;;19.95;13.23;;;;;;;3.90;59.41;98748.53;10438115;28;20132;-69
2022/12/09 11:56:33;;;;;;;19.30;12.40;;;;;;;4.04;59.42;98743.47;10426638;28;20049;-69
2022/12/09 12:01:51;;;;;;;19.35;12.07;;;;;;;4.15;58.62;98746.31;10426304;28;20049;-69
2022/12/09 12:07:09;;;;;;;17.10;11.95;;;;;;;3.98;58.19;98746.38;10425770;28;20053;-69
2022/12/09 12:12:34;;;;;;;18.48;12.50;;;;;;;3.75;58.19;98749.28;10431789;28;20501;-69
2022/12/09 12:17:42;;;;;;;19.42;12.55;;;;;;;3.65;58.94;98741.16;10426552;28;20069;-69
2022/12/09 12:23:02;;;;;;;23.90;14.18;;;;;;;3.36;59.61;98739.19;10441733;28;20319;-70
2022/12/09 12:28:42;;;;;;;19.83;13.55;;;;;;;3.31;59.85;98735.16;10436012;28;20065;-69
2022/12/09 12:33:49;;;;;;;;;;;;;;;3.46;60.29;98742.13;10423727;28;20584;-70
2022/12/09 12:39:50;;;;;;;21.02;13.30;;;;;;;4.23;58.77;98731.22;10433671;28;19924;-69
2022/12/09 12:51:10;;;;;;;21.40;13.63;;;;;;;4.09;58.56;98720.78;10433148;28;20049;-69
2022/12/09 12:56:22;;;;;;;18.75;12.82;;;;;;;4.14;58.05;98718.78;10434520;28;20488;-68
2022/12/09 13:01:29;;;;;;;19.38;12.07;;;;;;;3.85;58.34;98728.06;10435083;28;20758;-69
2022/12/09 13:06:40;;;;;;;17.15;11.15;;;;;;;3.60;58.87;98726.81;10432487;28;20088;-69
2022/12/09 13:12:52;;;;;;;19.33;12.82;;;;;;;3.25;59.09;98728.56;10436526;28;20481;-68
2022/12/09 13:17:45;;;;;;;15.32;10.45;;;;;;;2.90;59.83;98735.44;10431564;28;20041;-69
2022/12/09 13:23:02;;;;;;;15.82;9.60;;;;;;;2.90;59.60;98730.25;10433895;28;20063;-69
2022/12/09 13:28:15;;;;;;;17.40;10.10;;;;;;;2.85;59.80;98731.38;10432252;28;20312;-69
2022/12/09 13:33:49;;;;;;;15.70;10.00;;;;;;;2.67;59.81;98725.34;10436649;28;20071;-68
2022/12/09 13:38:50;;;;;;;16.30;10.95;;;;;;;2.56;60.25;98735.31;10415078;28;20227;-68
2022/12/09 13:43:56;;;;;;;18.85;12.05;;;;;;;2.52;60.40;98738.13;10436956;28;20045;-68
2022/12/09 13:49:09;;;;;;;19.90;12.77;;;;;;;2.30;61.46;98745.19;10431053;28;20064;-68
2022/12/09 13:54:15;;;;;;;21.58;13.65;;;;;;;2.20;61.51;98737.00;10440353;28;20524;-67
2022/12/09 13:59:39;;;;;;;20.75;14.32;;;;;;;2.21;61.57;98741.28;10442450;28;20401;-68
2022/12/09 14:04:55;;;;;;;19.40;14.32;;;;;;;2.08;61.51;98750.44;10428856;28;20048;-68
2022/12/09 14:09:59;;;;;;;21.02;15.40;;;;;;;2.10;61.94;98756.38;10429388;28;20048;-68
2022/12/09 14:15:24;;;;;;;22.98;15.18;;;;;;;2.27;62.12;98755.63;10429859;28;20049;-68
2022/12/09 14:20:32;;;;;;;22.98;15.18;;;;;;;2.51;61.63;98760.50;10428883;28;20056;-68
2022/12/09 14:25:33;;;;;;;18.08;13.18;;;;;;;2.30;61.42;98773.56;10432653;28;20049;-67
2022/12/09 14:30:58;;;;;;;17.65;13.48;;;;;;;2.08;61.53;98771.91;10449062;28;20053;-68
2022/12/09 14:36:11;;;;;;;20.25;12.70;;;;;;;2.00;61.51;98773.16;10431846;28;20118;-68
2022/12/09 14:41:45;;;;;;;17.02;13.00;;;;;;;1.86;61.90;98773.75;10441763;28;20049;-68
2022/12/09 14:46:49;;;;;;;16.33;11.60;;;;;;;1.91;61.77;98773.56;10429917;28;20512;-67
2022/12/09 14:52:01;;;;;;;17.83;12.50;;;;;;;1.79;61.83;98779.22;10430887;28;20067;-67
2022/12/09 14:57:08;;;;;;;16.98;12.48;;;;;;;1.77;62.06;98784.44;10426108;28;20048;-67
2022/12/09 15:02:21;;;;;;;19.63;11.90;;;;;;;1.67;62.16;98792.63;10429494;28;20095;-67
2022/12/09 15:07:28;;;;;;;16.65;12.13;;;;;;;1.40;62.72;98791.22;10429526;28;20515;-68
2022/12/09 15:12:42;;;;;;;19.55;12.90;;;;;;;1.21;63.19;98789.38;10447621;28;20057;-67
2022/12/09 15:17:52;;;;;;;15.48;11.80;;;;;;;0.74;63.73;98792.13;10449109;28;20383;-66
2022/12/09 15:22:59;;;;;;;19.57;12.70;;;;;;;0.71;63.95;98789.69;10447520;28;20224;-67
2022/12/09 15:28:03;;;;;;;16.63;12.23;;;;;;;0.73;63.88;98796.44;10428793;28;20421;-67
2022/12/09 15:33:37;;;;;;;16.83;11.85;;;;;;;0.54;63.99;98804.00;10446941;28;20190;-67
2022/12/09 15:38:48;;;;;;;18.00;11.65;;;;;;;0.68;64.40;98808.66;10442595;28;20045;-67
2022/12/09 15:43:51;;;;;;;15.13;11.25;;;;;;;0.76;63.92;98814.34;10441572;28;20408;-67
2022/12/09 15:48:58;;;;;;;20.48;12.50;;;;;;;0.93;63.82;98814.50;10441352;28;20148;-67
2022/12/09 15:54:03;;;;;;;14.68;9.88;;;;;;;0.76;63.58;98827.19;10438234;28;20055;-67
2022/12/09 15:59:26;;;;;;;15.45;9.98;;;;;;;0.78;63.98;98825.41;10427950;28;20044;-67
2022/12/09 16:04:34;;;;;;;12.75;9.20;;;;;;;0.94;63.35;98823.94;10427258;28;20399;-67
2022/12/09 16:09:36;;;;;;;13.25;9.80;;;;;;;1.10;63.33;98822.44;10437767;28;20061;-67
2022/12/09 16:14:43;;;;;;;14.00;10.68;;;;;;;1.23;62.92;98821.06;10425895;28;20048;-67
2022/12/09 16:19:44;;;;;;;14.25;9.43;;;;;;;1.14;62.89;98821.41;10466853;28;20044;-68
2022/12/09 16:24:56;;;;;;;14.73;10.50;;;;;;;1.32;62.77;98837.84;10451302;28;20429;-67
2022/12/09 16:30:19;;;;;;;13.65;10.20;;;;;;;1.20;62.49;98839.19;10458544;28;20057;-67
2022/12/09 16:35:26;;;;;;;13.93;9.95;;;;;;;1.18;62.33;98835.00;10467065;28;20048;-68
2022/12/09 16:40:31;;;;;;;17.85;11.98;;;;;;;1.19;62.61;98831.53;10467320;28;20561;-67
2022/12/09 16:45:37;;;;;;;17.17;11.93;;;;;;;1.38;62.24;98833.31;10445558;28;20417;-67
2022/12/09 16:50:46;;;;;;;18.73;11.82;;;;;;;1.44;62.25;98841.69;10466825;28;20451;-67
2022/12/09 16:55:53;;;;;;;21.05;13.13;;;;;;;1.50;62.09;98847.47;10436877;28;20057;-61
2022/12/09 17:00:56;;;;;;;20.38;13.30;;;;;;;1.47;62.65;98847.56;10421583;28;20059;-61
2022/12/09 17:05:59;;;;;;;17.35;11.25;;;;;;;1.39;61.66;98854.75;10435838;28;20072;-61
2022/12/09 17:11:00;;;;;;;17.83;12.68;;;;;;;1.05;62.08;98851.84;10430278;28;20416;-61
2022/12/09 17:16:06;;;;;;;17.27;11.80;;;;;;;0.99;62.72;98858.03;10439133;28;20057;-61
2022/12/09 17:21:12;;;;;;;14.45;11.30;;;;;;;1.19;62.08;98844.41;10437267;28;21017;-60
2022/12/09 17:26:18;;;;;;;14.57;10.05;;;;;;;1.40;61.69;98845.31;10444110;28;20103;-61
2022/12/09 17:31:22;;;;;;;13.63;10.25;;;;;;;1.33;61.41;98857.59;10440165;28;20654;-61
2022/12/09 17:36:24;;;;;;;13.98;10.23;;;;;;;1.48;61.71;98861.28;10435247;28;20087;-61
2022/12/09 17:41:26;;;;;;;14.63;10.15;;;;;;;1.64;61.13;98864.94;10435347;28;20057;-61
2022/12/09 17:46:29;;;;;;;13.40;9.65;;;;;;;1.66;61.00;98863.13;10430724;28;20044;-61
2022/12/09 17:51:31;;;;;;;16.08;11.75;;;;;;;1.80;61.34;98868.56;10439620;28;20489;-61
2022/12/09 17:56:37;;;;;;;17.30;11.90;;;;;;;1.79;60.61;98869.44;10430603;28;20615;-61
2022/12/09 18:01:39;;;;;;;12.75;9.60;;;;;;;1.60;60.29;98873.69;10426749;28;20440;-61
2022/12/09 18:06:44;;;;;;;15.88;11.15;;;;;;;1.43;60.48;98868.34;10452028;28;20049;-61
2022/12/09 18:11:46;;;;;;;17.63;11.15;;;;;;;1.34;60.35;98872.13;10432038;28;20061;-61
2022/12/09 18:16:50;;;;;;;14.80;10.77;;;;;;;1.36;60.59;98875.47;10434712;28;20480;-61
2022/12/09 18:21:55;;;;;;;16.45;11.38;;;;;;;1.50;60.44;98877.53;10429705;28;20049;-61
2022/12/09 18:26:57;;;;;;;17.55;11.75;;;;;;;1.59;60.55;98877.13;10429625;28;20048;-61
2022/12/09 18:31:59;;;;;;;15.57;11.27;;;;;;;1.49;60.62;98875.84;10427877;28;20049;-61
2022/12/09 18:37:02;;;;;;;15.43;11.85;;;;;;;1.29;61.09;98877.47;10428678;28;20052;-61
2022/12/09 18:42:04;;;;;;;19.20;13.63;;;;;;;1.02;61.49;98875.94;10428050;28;20071;-60
2022/12/09 18:47:06;;;;;;;16.88;12.45;;;;;;;0.75;61.36;98883.88;10429883;28;20173;-61
2022/12/09 18:52:07;;;;;;;16.48;11.80;;;;;;;0.57;61.89;98876.81;10426741;28;20057;-61
2022/12/09 18:57:09;;;;;;;21.75;12.50;;;;;;;0.49;62.17;98877.94;10430123;28;20876;-61
2022/12/09 19:02:13;;;;;;;19.77;13.60;;;;;;;0.38;62.64;98876.66;10430357;28;20044;-61
2022/12/09 19:07:15;;;;;;;22.40;15.07;;;;;;;0.29;62.84;98879.53;10431863;28;20041;-61
2022/12/09 19:12:17;;;;;;;23.25;16.35;;;;;;;0.17;63.03;98874.81;10431822;28;20059;-61
2022/12/09 19:17:39;;;;;;;;;;;;;;;-0.16;64.00;98881.94;10427165;28;20076;-61
2022/12/09 19:22:41;;;;;;;21.70;14.75;;;;;;;-0.07;63.64;98884.22;10430784;28;20273;-61
2022/12/09 19:27:45;;;;;;;23.90;16.13;;;;;;;-0.09;63.77;98895.44;10428394;28;20071;-61
2022/12/09 19:32:47;;;;;;;22.30;16.02;;;;;;;-0.14;64.05;98893.00;10426477;28;20566;-61
2022/12/09 19:37:53;;;;;;;25.23;16.45;;;;;;;-0.18;64.17;98895.72;10427674;28;20144;-61
2022/12/09 19:43:02;;;;;;;19.00;13.90;;;;;;;-0.23;64.25;98898.47;10426206;28;20048;-61
2022/12/09 19:48:03;;;;;;;20.10;14.18;;;;;;;-0.31;64.26;98906.41;10425036;28;20404;-61
2022/12/09 19:53:05;;;;;;;21.75;15.15;;;;;;;-0.37;64.50;98906.59;10424374;28;20492;-60
2022/12/09 19:58:07;;;;;;;18.30;13.52;;;;;;;-0.31;64.69;98908.13;10424765;28;20483;-61
2022/12/09 20:03:09;;;;;;;19.98;13.73;;;;;;;-0.31;64.60;98900.41;10425978;28;20045;-62
2022/12/09 20:08:11;;;;;;;18.52;13.25;;;;;;;-0.39;64.77;98913.50;10425355;28;20067;-61
2022/12/09 20:13:14;;;;;;;22.95;15.80;;;;;;;-0.53;64.88;98907.97;10427312;28;20135;-60
2022/12/09 20:18:16;;;;;;;28.35;19.35;;;;;;;-0.63;64.99;98911.72;10425689;28;20543;-61
2022/12/09 20:23:17;;;;;;;25.17;17.30;;;;;;;-0.65;65.28;98910.94;10424247;28;20052;-61
2022/12/09 20:28:19;;;;;;;23.90;15.95;;;;;;;-0.75;65.16;98912.09;10423990;28;20528;-61
2022/12/09 20:33:21;;;;;;;21.10;14.18;;;;;;;-0.83;65.46;98916.63;10445404;28;20239;-61
2022/12/09 20:38:22;;;;;;;21.20;13.63;;;;;;;-1.07;65.33;98922.50;10427227;28;20048;-61
2022/12/09 20:43:24;;;;;;;19.55;13.32;;;;;;;-1.11;65.64;98925.19;10445021;28;20053;-61
2022/12/09 20:48:26;;;;;;;23.90;14.60;;;;;;;-0.97;65.72;98929.03;10439379;28;20052;-61
2022/12/09 20:53:27;;;;;;;21.38;14.30;;;;;;;-1.03;65.69;98929.22;10432950;28;20049;-61
2022/12/09 20:58:29;;;;;;;20.10;14.15;;;;;;;-0.93;65.85;98933.19;10455064;28;20350;-60
2022/12/09 21:03:31;;;;;;;24.10;15.82;;;;;;;-0.86;65.86;98939.00;10432161;28;20049;-60
2022/12/09 21:08:33;;;;;;;27.17;18.20;;;;;;;-0.92;65.70;98944.31;10432873;28;20677;-61
2022/12/09 21:13:37;;;;;;;25.10;16.90;;;;;;;-0.84;66.02;98939.78;10432714;28;20048;-61
2022/12/09 21:18:39;;;;;;;26.67;16.80;;;;;;;-0.75;65.80;98937.78;10431735;28;20053;-60
2022/12/09 21:23:41;;;;;;;25.33;17.38;;;;;;;-0.71;65.74;98941.06;10431610;28;20052;-61
2022/12/09 21:28:45;;;;;;;31.40;19.35;;;;;;;-0.75;65.57;98937.78;10435629;28;20049;-61
2022/12/09 21:33:48;;;;;;;26.55;17.20;;;;;;;-0.87;65.79;98945.84;10437263;28;20041;-61
2022/12/09 21:38:51;;;;;;;27.65;17.92;;;;;;;-0.79;65.85;98943.88;10430665;28;20053;-61
2022/12/09 21:43:56;;;;;;;26.95;17.75;;;;;;;-0.76;65.76;98946.34;10440451;28;20063;-61
2022/12/09 21:49:00;;;;;;;26.67;17.73;;;;;;;-0.79;65.75;98954.16;10429488;28;20489;-61
2022/12/09 21:54:04;;;;;;;27.15;16.55;;;;;;;-0.71;65.80;98951.34;10452549;28;20052;-61
2022/12/09 21:59:08;;;;;;;24.15;16.13;;;;;;;-0.49;65.59;98962.66;10440004;28;20413;-61
2022/12/09 22:04:14;;;;;;;26.27;17.23;;;;;;;-0.47;65.27;98959.16;10438956;28;20056;-61
2022/12/09 22:09:19;;;;;;;29.05;17.00;;;;;;;-0.34;65.42;98968.16;10429957;28;20045;-61
2022/12/09 22:14:21;;;;;;;26.63;16.85;;;;;;;-0.20;65.47;98969.44;10429969;28;20617;-61
2022/12/09 22:19:22;;;;;;;25.23;16.75;;;;;;;-0.11;65.29;98974.31;10430681;28;20428;-61
2022/12/09 22:24:24;;;;;;;25.08;16.52;;;;;;;0.02;65.18;98971.28;10430551;28;20405;-61
2022/12/09 22:29:26;;;;;;;23.40;16.52;;;;;;;0.11;65.12;98980.44;10435454;28;20053;-61
2022/12/09 22:34:27;;;;;;;29.10;19.40;;;;;;;0.15;64.85;98982.00;10429387;28;20135;-61
2022/12/09 22:39:29;;;;;;;24.50;16.20;;;;;;;0.18;64.67;98982.75;10435244;28;20052;-62
2022/12/09 22:44:31;;;;;;;24.25;15.70;;;;;;;0.08;64.59;98986.50;10435884;28;20057;-61
2022/12/09 22:49:33;;;;;;;24.92;16.52;;;;;;;0.02;64.69;98996.97;10428325;28;20413;-61
2022/12/09 22:54:35;;;;;;;21.23;14.02;;;;;;;0.10;64.74;98999.31;10440073;28;20493;-61
2022/12/09 22:59:36;;;;;;;23.23;16.00;;;;;;;0.19;64.46;98999.88;10430059;28;20053;-61
2022/12/09 23:04:43;;;;;;;21.73;15.48;;;;;;;0.12;64.79;98997.53;10428541;28;20049;-61
2022/12/09 23:09:45;;;;;;;21.00;14.60;;;;;;;0.17;64.89;99011.06;10438408;28;20048;-61
2022/12/09 23:14:46;;;;;;;20.45;14.07;;;;;;;0.15;64.65;99002.56;10427910;28;20231;-61
2022/12/09 23:19:48;;;;;;;21.13;14.07;;;;;;;0.26;64.58;98998.75;10428717;28;20421;-61
2022/12/09 23:24:50;;;;;;;21.33;14.25;;;;;;;0.34;64.41;98991.63;10431090;28;20052;-61
2022/12/09 23:29:51;;;;;;;21.50;14.27;;;;;;;0.36;64.45;98996.75;10426730;28;20061;-61
2022/12/09 23:34:53;;;;;;;22.35;13.98;;;;;;;0.32;64.47;98995.97;10427136;28;20626;-61